sensor_id;sensor_type;location;lat;lon;timestamp;P1;durP1;ratioP1;P2;durP2;ratioP2
25952;SDS011;13750;50.804;8.764;2023-07-28T00:02:18;1.03;;;0.77;;
25952;SDS011;13750;50.804;8.764;2023-07-28T00:04:43;0.77;;;0.77;;
25952;SDS011;13750;50.804;8.764;2023-07-28T00:07:09;1.27;;;0.93;;
25952;SDS011;13750;50.804;8.764;2023-07-28T00:09:35;1.43;;;0.80;;
25952;SDS011;13750;50.804;8.764;2023-07-28T00:12:00;1.27;;;1.00;;
25952;SDS011;13750;50.804;8.764;2023-07-28T00:14:27;1.10;;;1.00;;
25952;SDS011;13750;50.804;8.764;2023-07-28T00:16:53;1.17;;;0.80;;
25952;SDS011;13750;50.804;8.764;2023-07-28T00:21:48;1.50;;;1.15;;
25952;SDS011;13750;50.804;8.764;2023-07-28T00:24:14;1.40;;;1.23;;
25952;SDS011;13750;50.804;8.764;2023-07-28T00:26:40;1.60;;;1.20;;
25952;SDS011;13750;50.804;8.764;2023-07-28T00:29:06;1.07;;;0.90;;
25952;SDS011;13750;50.804;8.764;2023-07-28T00:31:32;1.20;;;0.80;;
25952;SDS011;13750;50.804;8.764;2023-07-28T00:33:58;1.02;;;0.80;;
25952;SDS011;13750;50.804;8.764;2023-07-28T00:36:24;1.43;;;0.80;;
25952;SDS011;13750;50.804;8.764;2023-07-28T00:38:50;0.90;;;0.80;;
25952;SDS011;13750;50.804;8.764;2023-07-28T00:41:15;1.17;;;0.80;;
25952;SDS011;13750;50.804;8.764;2023-07-28T00:43:41;1.50;;;0.90;;
25952;SDS011;13750;50.804;8.764;2023-07-28T00:46:07;1.57;;;1.10;;
25952;SDS011;13750;50.804;8.764;2023-07-28T00:48:34;1.65;;;1.10;;
25952;SDS011;13750;50.804;8.764;2023-07-28T00:51:00;0.80;;;0.73;;
25952;SDS011;13750;50.804;8.764;2023-07-28T00:53:25;1.40;;;0.93;;
25952;SDS011;13750;50.804;8.764;2023-07-28T00:55:52;1.52;;;1.05;;
25952;SDS011;13750;50.804;8.764;2023-07-28T00:58:18;1.00;;;0.83;;
25952;SDS011;13750;50.804;8.764;2023-07-28T01:00:44;1.05;;;0.90;;
25952;SDS011;13750;50.804;8.764;2023-07-28T01:03:09;1.20;;;0.90;;
25952;SDS011;13750;50.804;8.764;2023-07-28T01:05:40;1.23;;;1.10;;
25952;SDS011;13750;50.804;8.764;2023-07-28T01:08:22;1.48;;;1.30;;
25952;SDS011;13750;50.804;8.764;2023-07-28T01:11:08;1.02;;;0.90;;
25952;SDS011;13750;50.804;8.764;2023-07-28T01:13:34;1.10;;;0.83;;
25952;SDS011;13750;50.804;8.764;2023-07-28T01:15:59;1.20;;;1.00;;
25952;SDS011;13750;50.804;8.764;2023-07-28T01:18:26;0.93;;;0.85;;
25952;SDS011;13750;50.804;8.764;2023-07-28T01:20:52;1.15;;;0.95;;
25952;SDS011;13750;50.804;8.764;2023-07-28T01:23:44;0.90;;;0.80;;
25952;SDS011;13750;50.804;8.764;2023-07-28T01:26:16;1.35;;;1.25;;
25952;SDS011;13750;50.804;8.764;2023-07-28T01:28:50;1.90;;;1.00;;
25952;SDS011;13750;50.804;8.764;2023-07-28T01:31:16;1.20;;;0.88;;
25952;SDS011;13750;50.804;8.764;2023-07-28T01:33:42;1.03;;;0.70;;
25952;SDS011;13750;50.804;8.764;2023-07-28T01:36:08;1.10;;;0.60;;
25952;SDS011;13750;50.804;8.764;2023-07-28T01:38:33;0.77;;;0.57;;
25952;SDS011;13750;50.804;8.764;2023-07-28T01:40:59;1.37;;;1.00;;
25952;SDS011;13750;50.804;8.764;2023-07-28T01:43:24;0.87;;;0.70;;
25952;SDS011;13750;50.804;8.764;2023-07-28T01:45:50;0.40;;;0.40;;
25952;SDS011;13750;50.804;8.764;2023-07-28T01:48:16;0.90;;;0.60;;
25952;SDS011;13750;50.804;8.764;2023-07-28T01:50:41;0.80;;;0.70;;
25952;SDS011;13750;50.804;8.764;2023-07-28T01:53:07;0.90;;;0.60;;
25952;SDS011;13750;50.804;8.764;2023-07-28T01:55:32;0.97;;;0.70;;
25952;SDS011;13750;50.804;8.764;2023-07-28T01:57:59;0.50;;;0.50;;
25952;SDS011;13750;50.804;8.764;2023-07-28T02:00:26;0.50;;;0.50;;
25952;SDS011;13750;50.804;8.764;2023-07-28T02:02:52;0.50;;;0.50;;
25952;SDS011;13750;50.804;8.764;2023-07-28T02:05:18;0.40;;;0.40;;
25952;SDS011;13750;50.804;8.764;2023-07-28T02:07:44;0.38;;;0.38;;
25952;SDS011;13750;50.804;8.764;2023-07-28T02:10:10;0.50;;;0.30;;
25952;SDS011;13750;50.804;8.764;2023-07-28T02:12:36;0.33;;;0.33;;
25952;SDS011;13750;50.804;8.764;2023-07-28T02:15:04;0.60;;;0.45;;
25952;SDS011;13750;50.804;8.764;2023-07-28T02:17:31;0.30;;;0.30;;
25952;SDS011;13750;50.804;8.764;2023-07-28T02:19:57;0.40;;;0.40;;
25952;SDS011;13750;50.804;8.764;2023-07-28T02:22:22;1.00;;;0.40;;
25952;SDS011;13750;50.804;8.764;2023-07-28T02:24:48;0.47;;;0.37;;
25952;SDS011;13750;50.804;8.764;2023-07-28T02:27:13;0.40;;;0.30;;
25952;SDS011;13750;50.804;8.764;2023-07-28T02:29:39;0.40;;;0.40;;
25952;SDS011;13750;50.804;8.764;2023-07-28T02:32:05;1.40;;;0.30;;
25952;SDS011;13750;50.804;8.764;2023-07-28T02:34:31;0.55;;;0.43;;
25952;SDS011;13750;50.804;8.764;2023-07-28T02:36:57;0.60;;;0.50;;
25952;SDS011;13750;50.804;8.764;2023-07-28T02:39:22;0.30;;;0.30;;
25952;SDS011;13750;50.804;8.764;2023-07-28T02:41:48;0.40;;;0.37;;
25952;SDS011;13750;50.804;8.764;2023-07-28T02:44:13;0.57;;;0.40;;
25952;SDS011;13750;50.804;8.764;2023-07-28T02:46:39;0.50;;;0.40;;
25952;SDS011;13750;50.804;8.764;2023-07-28T02:49:05;0.60;;;0.43;;
25952;SDS011;13750;50.804;8.764;2023-07-28T02:51:30;0.80;;;0.57;;
25952;SDS011;13750;50.804;8.764;2023-07-28T02:53:56;0.67;;;0.63;;
25952;SDS011;13750;50.804;8.764;2023-07-28T02:56:21;0.90;;;0.50;;
25952;SDS011;13750;50.804;8.764;2023-07-28T02:58:48;0.60;;;0.40;;
25952;SDS011;13750;50.804;8.764;2023-07-28T03:01:14;0.73;;;0.57;;
25952;SDS011;13750;50.804;8.764;2023-07-28T03:03:39;0.77;;;0.53;;
25952;SDS011;13750;50.804;8.764;2023-07-28T03:06:05;0.47;;;0.47;;
25952;SDS011;13750;50.804;8.764;2023-07-28T03:08:30;0.67;;;0.40;;
25952;SDS011;13750;50.804;8.764;2023-07-28T03:10:56;0.60;;;0.53;;
25952;SDS011;13750;50.804;8.764;2023-07-28T03:13:23;0.52;;;0.40;;
25952;SDS011;13750;50.804;8.764;2023-07-28T03:15:48;0.40;;;0.30;;
25952;SDS011;13750;50.804;8.764;2023-07-28T03:18:14;0.33;;;0.33;;
25952;SDS011;13750;50.804;8.764;2023-07-28T03:20:39;0.40;;;0.40;;
25952;SDS011;13750;50.804;8.764;2023-07-28T03:23:05;0.40;;;0.40;;
25952;SDS011;13750;50.804;8.764;2023-07-28T03:25:30;0.40;;;0.40;;
25952;SDS011;13750;50.804;8.764;2023-07-28T03:27:56;0.30;;;0.30;;
25952;SDS011;13750;50.804;8.764;2023-07-28T03:30:21;0.43;;;0.43;;
25952;SDS011;13750;50.804;8.764;2023-07-28T03:32:47;0.47;;;0.40;;
25952;SDS011;13750;50.804;8.764;2023-07-28T03:35:13;0.80;;;0.50;;
25952;SDS011;13750;50.804;8.764;2023-07-28T03:37:38;0.40;;;0.40;;
25952;SDS011;13750;50.804;8.764;2023-07-28T03:40:04;0.43;;;0.43;;
25952;SDS011;13750;50.804;8.764;2023-07-28T03:42:30;0.55;;;0.50;;
25952;SDS011;13750;50.804;8.764;2023-07-28T03:44:56;0.57;;;0.57;;
25952;SDS011;13750;50.804;8.764;2023-07-28T03:47:22;0.30;;;0.30;;
25952;SDS011;13750;50.804;8.764;2023-07-28T03:49:48;0.40;;;0.40;;
25952;SDS011;13750;50.804;8.764;2023-07-28T03:52:13;0.47;;;0.47;;
25952;SDS011;13750;50.804;8.764;2023-07-28T03:54:39;0.60;;;0.60;;
25952;SDS011;13750;50.804;8.764;2023-07-28T03:57:04;0.60;;;0.50;;
25952;SDS011;13750;50.804;8.764;2023-07-28T03:59:30;0.40;;;0.40;;
25952;SDS011;13750;50.804;8.764;2023-07-28T04:01:56;0.80;;;0.50;;
25952;SDS011;13750;50.804;8.764;2023-07-28T04:04:22;0.63;;;0.63;;
25952;SDS011;13750;50.804;8.764;2023-07-28T04:06:48;0.40;;;0.40;;
25952;SDS011;13750;50.804;8.764;2023-07-28T04:09:15;0.70;;;0.50;;
25952;SDS011;13750;50.804;8.764;2023-07-28T04:11:42;0.70;;;0.52;;
25952;SDS011;13750;50.804;8.764;2023-07-28T04:14:08;0.55;;;0.55;;
25952;SDS011;13750;50.804;8.764;2023-07-28T04:16:34;0.45;;;0.45;;
25952;SDS011;13750;50.804;8.764;2023-07-28T04:19:00;0.50;;;0.50;;
25952;SDS011;13750;50.804;8.764;2023-07-28T04:21:25;0.60;;;0.60;;
25952;SDS011;13750;50.804;8.764;2023-07-28T04:23:51;0.80;;;0.60;;
25952;SDS011;13750;50.804;8.764;2023-07-28T04:26:17;0.77;;;0.50;;
25952;SDS011;13750;50.804;8.764;2023-07-28T04:28:43;0.60;;;0.60;;
25952;SDS011;13750;50.804;8.764;2023-07-28T04:31:09;0.40;;;0.40;;
25952;SDS011;13750;50.804;8.764;2023-07-28T04:33:35;0.40;;;0.40;;
25952;SDS011;13750;50.804;8.764;2023-07-28T04:36:02;0.40;;;0.40;;
25952;SDS011;13750;50.804;8.764;2023-07-28T04:38:28;0.40;;;0.38;;
25952;SDS011;13750;50.804;8.764;2023-07-28T04:40:53;0.67;;;0.67;;
25952;SDS011;13750;50.804;8.764;2023-07-28T04:43:19;0.30;;;0.30;;
25952;SDS011;13750;50.804;8.764;2023-07-28T04:45:44;0.67;;;0.40;;
25952;SDS011;13750;50.804;8.764;2023-07-28T04:48:10;0.47;;;0.40;;
25952;SDS011;13750;50.804;8.764;2023-07-28T04:50:36;0.63;;;0.50;;
25952;SDS011;13750;50.804;8.764;2023-07-28T04:53:02;0.40;;;0.40;;
25952;SDS011;13750;50.804;8.764;2023-07-28T04:55:27;0.37;;;0.23;;
25952;SDS011;13750;50.804;8.764;2023-07-28T04:57:53;0.40;;;0.37;;
25952;SDS011;13750;50.804;8.764;2023-07-28T05:00:19;0.83;;;0.60;;
25952;SDS011;13750;50.804;8.764;2023-07-28T05:02:44;0.40;;;0.40;;
25952;SDS011;13750;50.804;8.764;2023-07-28T05:05:10;0.40;;;0.40;;
25952;SDS011;13750;50.804;8.764;2023-07-28T05:07:35;1.17;;;0.83;;
25952;SDS011;13750;50.804;8.764;2023-07-28T05:10:01;2.07;;;1.13;;
25952;SDS011;13750;50.804;8.764;2023-07-28T05:12:26;1.00;;;0.90;;
25952;SDS011;13750;50.804;8.764;2023-07-28T05:14:52;0.93;;;0.80;;
25952;SDS011;13750;50.804;8.764;2023-07-28T05:17:18;1.40;;;0.67;;
25952;SDS011;13750;50.804;8.764;2023-07-28T05:19:44;0.80;;;0.63;;
25952;SDS011;13750;50.804;8.764;2023-07-28T05:22:09;1.07;;;0.80;;
25952;SDS011;13750;50.804;8.764;2023-07-28T05:24:35;0.33;;;0.33;;
25952;SDS011;13750;50.804;8.764;2023-07-28T05:27:01;0.40;;;0.40;;
25952;SDS011;13750;50.804;8.764;2023-07-28T05:29:26;0.40;;;0.40;;
25952;SDS011;13750;50.804;8.764;2023-07-28T05:31:52;0.90;;;0.60;;
25952;SDS011;13750;50.804;8.764;2023-07-28T05:34:17;0.53;;;0.40;;
25952;SDS011;13750;50.804;8.764;2023-07-28T05:36:43;0.60;;;0.30;;
25952;SDS011;13750;50.804;8.764;2023-07-28T05:39:09;0.93;;;0.60;;
25952;SDS011;13750;50.804;8.764;2023-07-28T05:41:35;0.47;;;0.40;;
25952;SDS011;13750;50.804;8.764;2023-07-28T05:44:02;0.52;;;0.52;;
25952;SDS011;13750;50.804;8.764;2023-07-28T05:46:28;0.70;;;0.50;;
25952;SDS011;13750;50.804;8.764;2023-07-28T05:48:54;0.60;;;0.60;;
25952;SDS011;13750;50.804;8.764;2023-07-28T05:51:20;0.52;;;0.40;;
25952;SDS011;13750;50.804;8.764;2023-07-28T05:53:46;0.82;;;0.50;;
25952;SDS011;13750;50.804;8.764;2023-07-28T05:56:12;0.80;;;0.80;;
25952;SDS011;13750;50.804;8.764;2023-07-28T05:58:38;1.47;;;0.50;;
25952;SDS011;13750;50.804;8.764;2023-07-28T06:01:04;0.73;;;0.50;;
25952;SDS011;13750;50.804;8.764;2023-07-28T06:03:29;0.60;;;0.60;;
25952;SDS011;13750;50.804;8.764;2023-07-28T06:05:55;0.57;;;0.52;;
25952;SDS011;13750;50.804;8.764;2023-07-28T06:08:21;0.80;;;0.73;;
25952;SDS011;13750;50.804;8.764;2023-07-28T06:10:47;0.60;;;0.60;;
25952;SDS011;13750;50.804;8.764;2023-07-28T06:13:13;0.50;;;0.50;;
25952;SDS011;13750;50.804;8.764;2023-07-28T06:15:39;0.60;;;0.50;;
25952;SDS011;13750;50.804;8.764;2023-07-28T06:18:05;0.47;;;0.47;;
25952;SDS011;13750;50.804;8.764;2023-07-28T06:20:30;0.60;;;0.47;;
25952;SDS011;13750;50.804;8.764;2023-07-28T06:22:56;0.60;;;0.60;;
25952;SDS011;13750;50.804;8.764;2023-07-28T06:25:22;0.50;;;0.50;;
25952;SDS011;13750;50.804;8.764;2023-07-28T06:27:47;0.60;;;0.60;;
25952;SDS011;13750;50.804;8.764;2023-07-28T06:30:13;0.50;;;0.50;;
25952;SDS011;13750;50.804;8.764;2023-07-28T06:32:39;0.57;;;0.50;;
25952;SDS011;13750;50.804;8.764;2023-07-28T06:35:04;0.40;;;0.40;;
25952;SDS011;13750;50.804;8.764;2023-07-28T06:37:32;0.40;;;0.40;;
25952;SDS011;13750;50.804;8.764;2023-07-28T06:39:58;0.60;;;0.47;;
25952;SDS011;13750;50.804;8.764;2023-07-28T06:42:24;0.50;;;0.50;;
25952;SDS011;13750;50.804;8.764;2023-07-28T06:44:50;0.60;;;0.60;;
25952;SDS011;13750;50.804;8.764;2023-07-28T06:47:16;0.40;;;0.40;;
25952;SDS011;13750;50.804;8.764;2023-07-28T06:49:42;0.32;;;0.32;;
25952;SDS011;13750;50.804;8.764;2023-07-28T06:52:08;0.47;;;0.40;;
25952;SDS011;13750;50.804;8.764;2023-07-28T06:54:34;0.73;;;0.50;;
25952;SDS011;13750;50.804;8.764;2023-07-28T06:56:59;0.40;;;0.40;;
25952;SDS011;13750;50.804;8.764;2023-07-28T06:59:25;0.70;;;0.50;;
25952;SDS011;13750;50.804;8.764;2023-07-28T07:01:50;0.53;;;0.37;;
25952;SDS011;13750;50.804;8.764;2023-07-28T07:04:16;0.50;;;0.50;;
25952;SDS011;13750;50.804;8.764;2023-07-28T07:06:42;1.43;;;0.50;;
25952;SDS011;13750;50.804;8.764;2023-07-28T07:09:07;0.50;;;0.50;;
25952;SDS011;13750;50.804;8.764;2023-07-28T07:11:33;0.77;;;0.53;;
25952;SDS011;13750;50.804;8.764;2023-07-28T07:13:58;1.57;;;0.50;;
25952;SDS011;13750;50.804;8.764;2023-07-28T07:16:24;0.40;;;0.40;;
25952;SDS011;13750;50.804;8.764;2023-07-28T07:18:51;0.57;;;0.40;;
25952;SDS011;13750;50.804;8.764;2023-07-28T07:21:16;0.77;;;0.50;;
25952;SDS011;13750;50.804;8.764;2023-07-28T07:23:42;0.43;;;0.43;;
25952;SDS011;13750;50.804;8.764;2023-07-28T07:26:07;0.40;;;0.37;;
25952;SDS011;13750;50.804;8.764;2023-07-28T07:28:33;0.73;;;0.50;;
25952;SDS011;13750;50.804;8.764;2023-07-28T07:31:00;0.50;;;0.40;;
25952;SDS011;13750;50.804;8.764;2023-07-28T07:33:26;1.13;;;0.50;;
25952;SDS011;13750;50.804;8.764;2023-07-28T07:35:52;0.70;;;0.70;;
25952;SDS011;13750;50.804;8.764;2023-07-28T07:38:18;0.60;;;0.40;;
25952;SDS011;13750;50.804;8.764;2023-07-28T07:40:47;0.43;;;0.40;;
25952;SDS011;13750;50.804;8.764;2023-07-28T07:43:15;0.40;;;0.40;;
25952;SDS011;13750;50.804;8.764;2023-07-28T07:45:45;0.40;;;0.40;;
25952;SDS011;13750;50.804;8.764;2023-07-28T07:50:37;0.45;;;0.45;;
25952;SDS011;13750;50.804;8.764;2023-07-28T07:53:03;0.57;;;0.50;;
25952;SDS011;13750;50.804;8.764;2023-07-28T07:55:28;0.50;;;0.50;;
25952;SDS011;13750;50.804;8.764;2023-07-28T07:57:55;0.45;;;0.45;;
25952;SDS011;13750;50.804;8.764;2023-07-28T08:00:21;0.43;;;0.43;;
25952;SDS011;13750;50.804;8.764;2023-07-28T08:02:47;0.60;;;0.60;;
25952;SDS011;13750;50.804;8.764;2023-07-28T08:05:12;0.30;;;0.30;;
25952;SDS011;13750;50.804;8.764;2023-07-28T08:07:38;0.40;;;0.40;;
25952;SDS011;13750;50.804;8.764;2023-07-28T08:10:07;0.55;;;0.52;;
25952;SDS011;13750;50.804;8.764;2023-07-28T08:12:32;0.50;;;0.40;;
25952;SDS011;13750;50.804;8.764;2023-07-28T08:14:58;0.30;;;0.30;;
25952;SDS011;13750;50.804;8.764;2023-07-28T08:17:24;1.20;;;0.47;;
25952;SDS011;13750;50.804;8.764;2023-07-28T08:19:49;0.37;;;0.37;;
25952;SDS011;13750;50.804;8.764;2023-07-28T08:22:15;1.07;;;0.40;;
25952;SDS011;13750;50.804;8.764;2023-07-28T08:24:40;0.20;;;0.20;;
25952;SDS011;13750;50.804;8.764;2023-07-28T08:27:06;0.30;;;0.30;;
25952;SDS011;13750;50.804;8.764;2023-07-28T08:29:32;0.30;;;0.30;;
25952;SDS011;13750;50.804;8.764;2023-07-28T08:31:57;0.50;;;0.40;;
25952;SDS011;13750;50.804;8.764;2023-07-28T08:34:23;0.30;;;0.30;;
25952;SDS011;13750;50.804;8.764;2023-07-28T08:36:48;0.40;;;0.40;;
25952;SDS011;13750;50.804;8.764;2023-07-28T08:39:14;0.30;;;0.30;;
25952;SDS011;13750;50.804;8.764;2023-07-28T08:41:40;0.30;;;0.30;;
25952;SDS011;13750;50.804;8.764;2023-07-28T08:44:06;0.33;;;0.33;;
25952;SDS011;13750;50.804;8.764;2023-07-28T08:46:32;0.35;;;0.35;;
25952;SDS011;13750;50.804;8.764;2023-07-28T08:48:59;0.40;;;0.32;;
25952;SDS011;13750;50.804;8.764;2023-07-28T08:51:25;0.37;;;0.33;;
25952;SDS011;13750;50.804;8.764;2023-07-28T08:53:50;0.30;;;0.30;;
25952;SDS011;13750;50.804;8.764;2023-07-28T08:56:16;0.30;;;0.30;;
25952;SDS011;13750;50.804;8.764;2023-07-28T08:58:41;0.30;;;0.30;;
25952;SDS011;13750;50.804;8.764;2023-07-28T09:01:07;0.30;;;0.30;;
25952;SDS011;13750;50.804;8.764;2023-07-28T09:03:32;0.30;;;0.30;;
25952;SDS011;13750;50.804;8.764;2023-07-28T09:06:02;0.28;;;0.28;;
25952;SDS011;13750;50.804;8.764;2023-07-28T09:08:31;0.47;;;0.40;;
25952;SDS011;13750;50.804;8.764;2023-07-28T09:10:57;0.40;;;0.40;;
25952;SDS011;13750;50.804;8.764;2023-07-28T09:13:32;0.47;;;0.47;;
25952;SDS011;13750;50.804;8.764;2023-07-28T09:16:02;0.63;;;0.63;;
25952;SDS011;13750;50.804;8.764;2023-07-28T09:18:28;0.60;;;0.60;;
25952;SDS011;13750;50.804;8.764;2023-07-28T09:20:53;0.40;;;0.40;;
25952;SDS011;13750;50.804;8.764;2023-07-28T09:23:24;0.40;;;0.40;;
25952;SDS011;13750;50.804;8.764;2023-07-28T09:25:58;0.30;;;0.30;;
25952;SDS011;13750;50.804;8.764;2023-07-28T09:28:38;0.30;;;0.30;;
25952;SDS011;13750;50.804;8.764;2023-07-28T09:31:05;0.20;;;0.20;;
25952;SDS011;13750;50.804;8.764;2023-07-28T09:33:31;0.40;;;0.20;;
25952;SDS011;13750;50.804;8.764;2023-07-28T09:36:04;0.20;;;0.20;;
25952;SDS011;13750;50.804;8.764;2023-07-28T09:38:36;0.30;;;0.30;;
25952;SDS011;13750;50.804;8.764;2023-07-28T09:41:04;0.13;;;0.13;;
25952;SDS011;13750;50.804;8.764;2023-07-28T09:43:34;0.20;;;0.20;;
25952;SDS011;13750;50.804;8.764;2023-07-28T09:46:03;0.30;;;0.30;;
25952;SDS011;13750;50.804;8.764;2023-07-28T09:48:31;0.22;;;0.22;;
25952;SDS011;13750;50.804;8.764;2023-07-28T09:50:59;0.30;;;0.30;;
25952;SDS011;13750;50.804;8.764;2023-07-28T09:53:32;0.20;;;0.20;;
25952;SDS011;13750;50.804;8.764;2023-07-28T09:56:05;0.10;;;0.10;;
25952;SDS011;13750;50.804;8.764;2023-07-28T09:58:33;0.30;;;0.20;;
25952;SDS011;13750;50.804;8.764;2023-07-28T10:01:02;0.20;;;0.20;;
25952;SDS011;13750;50.804;8.764;2023-07-28T10:03:30;0.22;;;0.22;;
25952;SDS011;13750;50.804;8.764;2023-07-28T10:05:57;0.20;;;0.20;;
25952;SDS011;13750;50.804;8.764;2023-07-28T10:08:22;0.20;;;0.20;;
25952;SDS011;13750;50.804;8.764;2023-07-28T10:10:49;0.50;;;0.40;;
25952;SDS011;13750;50.804;8.764;2023-07-28T10:13:20;0.40;;;0.40;;
25952;SDS011;13750;50.804;8.764;2023-07-28T10:15:47;0.52;;;0.40;;
25952;SDS011;13750;50.804;8.764;2023-07-28T10:18:13;0.40;;;0.40;;
25952;SDS011;13750;50.804;8.764;2023-07-28T10:20:39;0.30;;;0.30;;
25952;SDS011;13750;50.804;8.764;2023-07-28T10:23:11;0.40;;;0.40;;
25952;SDS011;13750;50.804;8.764;2023-07-28T10:25:39;0.30;;;0.30;;
25952;SDS011;13750;50.804;8.764;2023-07-28T10:28:05;0.32;;;0.32;;
25952;SDS011;13750;50.804;8.764;2023-07-28T10:30:36;0.30;;;0.30;;
25952;SDS011;13750;50.804;8.764;2023-07-28T10:33:03;0.20;;;0.20;;
25952;SDS011;13750;50.804;8.764;2023-07-28T10:35:29;0.30;;;0.30;;
25952;SDS011;13750;50.804;8.764;2023-07-28T10:37:57;0.20;;;0.20;;
25952;SDS011;13750;50.804;8.764;2023-07-28T10:42:53;0.20;;;0.20;;
25952;SDS011;13750;50.804;8.764;2023-07-28T10:45:19;0.40;;;0.40;;
25952;SDS011;13750;50.804;8.764;2023-07-28T10:47:45;0.77;;;0.68;;
25952;SDS011;13750;50.804;8.764;2023-07-28T10:50:12;0.40;;;0.30;;
25952;SDS011;13750;50.804;8.764;2023-07-28T10:52:45;0.50;;;0.50;;
25952;SDS011;13750;50.804;8.764;2023-07-28T10:55:20;0.50;;;0.47;;
25952;SDS011;13750;50.804;8.764;2023-07-28T10:57:49;2.05;;;0.55;;
25952;SDS011;13750;50.804;8.764;2023-07-28T11:00:16;0.47;;;0.40;;
25952;SDS011;13750;50.804;8.764;2023-07-28T11:02:47;0.45;;;0.45;;
25952;SDS011;13750;50.804;8.764;2023-07-28T11:05:19;0.65;;;0.60;;
25952;SDS011;13750;50.804;8.764;2023-07-28T11:07:49;0.50;;;0.50;;
25952;SDS011;13750;50.804;8.764;2023-07-28T11:10:16;0.50;;;0.50;;
25952;SDS011;13750;50.804;8.764;2023-07-28T11:12:47;0.60;;;0.60;;
25952;SDS011;13750;50.804;8.764;2023-07-28T11:15:14;0.50;;;0.50;;
25952;SDS011;13750;50.804;8.764;2023-07-28T11:17:41;0.60;;;0.60;;
25952;SDS011;13750;50.804;8.764;2023-07-28T11:22:54;0.40;;;0.40;;
25952;SDS011;13750;50.804;8.764;2023-07-28T11:25:24;0.30;;;0.30;;
25952;SDS011;13750;50.804;8.764;2023-07-28T11:27:51;0.38;;;0.30;;
25952;SDS011;13750;50.804;8.764;2023-07-28T11:30:17;0.30;;;0.30;;
25952;SDS011;13750;50.804;8.764;2023-07-28T11:32:46;0.30;;;0.30;;
25952;SDS011;13750;50.804;8.764;2023-07-28T11:35:15;0.30;;;0.30;;
25952;SDS011;13750;50.804;8.764;2023-07-28T11:37:42;0.22;;;0.20;;
25952;SDS011;13750;50.804;8.764;2023-07-28T11:40:09;0.20;;;0.20;;
25952;SDS011;13750;50.804;8.764;2023-07-28T11:45:31;0.20;;;0.20;;
25952;SDS011;13750;50.804;8.764;2023-07-28T11:47:58;0.30;;;0.27;;
25952;SDS011;13750;50.804;8.764;2023-07-28T11:50:26;0.28;;;0.28;;
25952;SDS011;13750;50.804;8.764;2023-07-28T11:52:53;0.65;;;0.30;;
25952;SDS011;13750;50.804;8.764;2023-07-28T11:57:46;0.30;;;0.30;;
25952;SDS011;13750;50.804;8.764;2023-07-28T12:00:12;0.43;;;0.40;;
25952;SDS011;13750;50.804;8.764;2023-07-28T12:02:41;0.40;;;0.40;;
25952;SDS011;13750;50.804;8.764;2023-07-28T12:05:14;0.38;;;0.38;;
25952;SDS011;13750;50.804;8.764;2023-07-28T12:07:40;0.40;;;0.30;;
25952;SDS011;13750;50.804;8.764;2023-07-28T12:10:11;0.30;;;0.30;;
25952;SDS011;13750;50.804;8.764;2023-07-28T12:12:45;0.35;;;0.35;;
25952;SDS011;13750;50.804;8.764;2023-07-28T12:15:30;0.50;;;0.50;;
25952;SDS011;13750;50.804;8.764;2023-07-28T12:18:14;0.52;;;0.38;;
25952;SDS011;13750;50.804;8.764;2023-07-28T12:20:41;0.40;;;0.40;;
25952;SDS011;13750;50.804;8.764;2023-07-28T12:23:19;0.60;;;0.40;;
25952;SDS011;13750;50.804;8.764;2023-07-28T12:25:45;0.40;;;0.40;;
25952;SDS011;13750;50.804;8.764;2023-07-28T12:28:12;0.30;;;0.30;;
25952;SDS011;13750;50.804;8.764;2023-07-28T12:30:38;0.30;;;0.30;;
25952;SDS011;13750;50.804;8.764;2023-07-28T12:33:04;0.30;;;0.30;;
25952;SDS011;13750;50.804;8.764;2023-07-28T12:37:59;0.55;;;0.50;;
25952;SDS011;13750;50.804;8.764;2023-07-28T12:40:31;0.35;;;0.35;;
25952;SDS011;13750;50.804;8.764;2023-07-28T12:42:58;0.40;;;0.40;;
25952;SDS011;13750;50.804;8.764;2023-07-28T12:45:24;0.50;;;0.50;;
25952;SDS011;13750;50.804;8.764;2023-07-28T12:47:54;0.40;;;0.40;;
25952;SDS011;13750;50.804;8.764;2023-07-28T12:50:23;0.63;;;0.40;;
25952;SDS011;13750;50.804;8.764;2023-07-28T12:52:49;0.50;;;0.40;;
25952;SDS011;13750;50.804;8.764;2023-07-28T12:55:16;0.95;;;0.30;;
25952;SDS011;13750;50.804;8.764;2023-07-28T12:57:42;0.38;;;0.38;;
25952;SDS011;13750;50.804;8.764;2023-07-28T13:00:08;0.20;;;0.20;;
25952;SDS011;13750;50.804;8.764;2023-07-28T13:02:38;0.32;;;0.30;;
25952;SDS011;13750;50.804;8.764;2023-07-28T13:05:05;0.40;;;0.40;;
25952;SDS011;13750;50.804;8.764;2023-07-28T13:07:32;0.35;;;0.35;;
25952;SDS011;13750;50.804;8.764;2023-07-28T13:09:57;0.60;;;0.50;;
25952;SDS011;13750;50.804;8.764;2023-07-28T13:12:23;0.70;;;0.40;;
25952;SDS011;13750;50.804;8.764;2023-07-28T13:14:48;0.60;;;0.60;;
25952;SDS011;13750;50.804;8.764;2023-07-28T13:17:14;0.60;;;0.60;;
25952;SDS011;13750;50.804;8.764;2023-07-28T13:19:41;1.17;;;0.40;;
25952;SDS011;13750;50.804;8.764;2023-07-28T13:22:07;0.77;;;0.70;;
25952;SDS011;13750;50.804;8.764;2023-07-28T13:24:32;0.50;;;0.40;;
25952;SDS011;13750;50.804;8.764;2023-07-28T13:26:58;0.40;;;0.40;;
25952;SDS011;13750;50.804;8.764;2023-07-28T13:29:23;0.50;;;0.50;;
25952;SDS011;13750;50.804;8.764;2023-07-28T13:31:49;0.77;;;0.50;;
25952;SDS011;13750;50.804;8.764;2023-07-28T13:34:14;0.33;;;0.33;;
25952;SDS011;13750;50.804;8.764;2023-07-28T13:36:40;0.47;;;0.47;;
25952;SDS011;13750;50.804;8.764;2023-07-28T13:39:08;0.45;;;0.45;;
25952;SDS011;13750;50.804;8.764;2023-07-28T13:41:33;0.40;;;0.40;;
25952;SDS011;13750;50.804;8.764;2023-07-28T13:43:59;0.40;;;0.40;;
25952;SDS011;13750;50.804;8.764;2023-07-28T13:46:24;0.40;;;0.37;;
25952;SDS011;13750;50.804;8.764;2023-07-28T13:48:50;0.57;;;0.57;;
25952;SDS011;13750;50.804;8.764;2023-07-28T13:51:15;1.13;;;0.33;;
25952;SDS011;13750;50.804;8.764;2023-07-28T13:53:41;0.47;;;0.43;;
25952;SDS011;13750;50.804;8.764;2023-07-28T13:56:06;0.50;;;0.50;;
25952;SDS011;13750;50.804;8.764;2023-07-28T13:58:32;0.40;;;0.40;;
25952;SDS011;13750;50.804;8.764;2023-07-28T14:00:57;0.43;;;0.43;;
25952;SDS011;13750;50.804;8.764;2023-07-28T14:03:23;0.30;;;0.30;;
25952;SDS011;13750;50.804;8.764;2023-07-28T14:05:48;0.37;;;0.37;;
25952;SDS011;13750;50.804;8.764;2023-07-28T14:08:14;0.40;;;0.40;;
25952;SDS011;13750;50.804;8.764;2023-07-28T14:10:43;0.70;;;0.50;;
25952;SDS011;13750;50.804;8.764;2023-07-28T14:13:09;0.32;;;0.32;;
25952;SDS011;13750;50.804;8.764;2023-07-28T14:15:35;0.40;;;0.40;;
25952;SDS011;13750;50.804;8.764;2023-07-28T14:18:00;0.50;;;0.50;;
25952;SDS011;13750;50.804;8.764;2023-07-28T14:20:26;0.70;;;0.70;;
25952;SDS011;13750;50.804;8.764;2023-07-28T14:22:51;0.57;;;0.57;;
25952;SDS011;13750;50.804;8.764;2023-07-28T14:25:17;0.93;;;0.50;;
25952;SDS011;13750;50.804;8.764;2023-07-28T14:27:42;0.43;;;0.37;;
25952;SDS011;13750;50.804;8.764;2023-07-28T14:30:08;0.40;;;0.40;;
25952;SDS011;13750;50.804;8.764;2023-07-28T14:32:34;0.35;;;0.30;;
25952;SDS011;13750;50.804;8.764;2023-07-28T14:34:59;0.57;;;0.50;;
25952;SDS011;13750;50.804;8.764;2023-07-28T14:37:25;0.40;;;0.40;;
25952;SDS011;13750;50.804;8.764;2023-07-28T14:39:50;0.30;;;0.30;;
25952;SDS011;13750;50.804;8.764;2023-07-28T14:42:16;0.30;;;0.30;;
25952;SDS011;13750;50.804;8.764;2023-07-28T14:44:42;0.30;;;0.30;;
25952;SDS011;13750;50.804;8.764;2023-07-28T14:47:07;0.27;;;0.27;;
25952;SDS011;13750;50.804;8.764;2023-07-28T14:49:33;0.40;;;0.40;;
25952;SDS011;13750;50.804;8.764;2023-07-28T14:51:58;0.30;;;0.30;;
25952;SDS011;13750;50.804;8.764;2023-07-28T14:54:24;0.20;;;0.20;;
25952;SDS011;13750;50.804;8.764;2023-07-28T14:56:49;0.30;;;0.30;;
25952;SDS011;13750;50.804;8.764;2023-07-28T14:59:15;0.63;;;0.30;;
25952;SDS011;13750;50.804;8.764;2023-07-28T15:01:41;0.20;;;0.20;;
25952;SDS011;13750;50.804;8.764;2023-07-28T15:04:07;0.40;;;0.40;;